Map

Track Data

SID SEASON NUMBER BASIN SUBBASIN NAME ISO_TIME NATURE LAT LON WMO_WIND WMO_PRES WMO_AGENCY TRACK_TYPE DIST2LAND LANDFALL IFLAG USA_AGENCY USA_ATCF_ID USA_LAT USA_LON USA_RECORD USA_STATUS USA_WIND USA_PRES USA_SSHS USA_R34_NE USA_R34_SE USA_R34_SW USA_R34_NW USA_R50_NE USA_R50_SE USA_R50_SW USA_R50_NW USA_R64_NE USA_R64_SE USA_R64_SW USA_R64_NW USA_POCI USA_ROCI USA_RMW USA_EYE TOKYO_LAT TOKYO_LON TOKYO_GRADE TOKYO_WIND TOKYO_PRES TOKYO_R50_DIR TOKYO_R50_LONG TOKYO_R50_SHORT TOKYO_R30_DIR TOKYO_R30_LONG TOKYO_R30_SHORT TOKYO_LAND CMA_LAT CMA_LON CMA_CAT CMA_WIND CMA_PRES HKO_LAT HKO_LON HKO_CAT HKO_WIND HKO_PRES NEWDELHI_LAT NEWDELHI_LON NEWDELHI_GRADE NEWDELHI_WIND NEWDELHI_PRES NEWDELHI_CI NEWDELHI_DP NEWDELHI_POCI REUNION_LAT REUNION_LON REUNION_TYPE REUNION_WIND REUNION_PRES REUNION_TNUM REUNION_CI REUNION_RMW REUNION_R34_NE REUNION_R34_SE REUNION_R34_SW REUNION_R34_NW REUNION_R50_NE REUNION_R50_SE REUNION_R50_SW REUNION_R50_NW REUNION_R64_NE REUNION_R64_SE REUNION_R64_SW REUNION_R64_NW BOM_LAT BOM_LON BOM_TYPE BOM_WIND BOM_PRES BOM_TNUM BOM_CI BOM_RMW BOM_R34_NE BOM_R34_SE BOM_R34_SW BOM_R34_NW BOM_R50_NE BOM_R50_SE BOM_R50_SW BOM_R50_NW BOM_R64_NE BOM_R64_SE BOM_R64_SW BOM_R64_NW BOM_ROCI BOM_POCI BOM_EYE BOM_POS_METHOD BOM_PRES_METHOD NADI_LAT NADI_LON NADI_CAT NADI_WIND NADI_PRES WELLINGTON_LAT WELLINGTON_LON WELLINGTON_WIND WELLINGTON_PRES DS824_LAT DS824_LON DS824_STAGE DS824_WIND DS824_PRES TD9636_LAT TD9636_LON TD9636_STAGE TD9636_WIND TD9636_PRES TD9635_LAT TD9635_LON TD9635_WIND TD9635_PRES TD9635_ROCI NEUMANN_LAT NEUMANN_LON NEUMANN_CLASS NEUMANN_WIND NEUMANN_PRES MLC_LAT MLC_LON MLC_CLASS MLC_WIND MLC_PRES USA_GUST BOM_GUST BOM_GUST_PER REUNION_GUST REUNION_GUST_PER USA_SEAHGT USA_SEARAD_NE USA_SEARAD_SE USA_SEARAD_SW USA_SEARAD_NW STORM_SPEED STORM_DIR
1949211N07139 1949 48 WP MM NOT_NAMED 1949-07-30 06:00:00 TS 6.80000 138.500 main 899 881 __O___________ -1 6.80000 138.500 0 1006 11 275
1949211N07139 1949 48 WP MM NOT_NAMED 1949-07-30 09:00:00 TS 6.84513 137.950 main 881 874 __P___________ -1 6.84513 137.950 0 1006 11 275
1949211N07139 1949 48 WP MM NOT_NAMED 1949-07-30 12:00:00 TS 6.90000 137.400 main 874 865 __O___________ -1 6.90000 137.400 0 1006 11 277
1949211N07139 1949 48 WP MM NOT_NAMED 1949-07-30 15:00:00 TS 6.97744 136.850 main 873 868 __P___________ -1 6.97744 136.850 0 1006 11 280
1949211N07139 1949 48 WP MM NOT_NAMED 1949-07-30 18:00:00 TS 7.10000 136.300 main 877 875 __O___________ -1 7.10000 136.300 0 1006 12 286
1949211N07139 1949 48 WP MM NOT_NAMED 1949-07-30 21:00:00 TS 7.28499 135.735 main 896 896 __P___________ -1 7.28499 135.735 0 1005 12 290
1949211N07139 1949 48 WP MM NOT_NAMED 1949-07-31 00:00:00 TS 7.50000 135.200 main 912 885 __O___________ -1 7.50000 135.200 0 1005 11 292
1949211N07139 1949 48 WP MM NOT_NAMED 1949-07-31 03:00:00 TS 7.69240 134.735 main 884 849 __P___________ -1 7.69240 134.735 0 1005 10 294
1949211N07139 1949 48 WP MM NOT_NAMED 1949-07-31 06:00:00 TS 7.90000 134.300 main 849 806 __O___________ -1 7.90000 134.300 0 1005 10 297
1949211N07139 1949 48 WP MM NOT_NAMED 1949-07-31 09:00:00 TS 8.13495 133.850 main 794 753 __P___________ -1 8.13495 133.850 0 1005 10 299
1949211N07139 1949 48 WP MM NOT_NAMED 1949-07-31 12:00:00 TS 8.40000 133.400 main 753 712 __O___________ -1 8.40000 133.400 0 1005 11 301
1949211N07139 1949 48 WP MM NOT_NAMED 1949-07-31 15:00:00 TS 8.68497 132.942 main 702 665 __P___________ -1 8.68497 132.942 0 1005 11 304
1949211N07139 1949 48 WP MM NOT_NAMED 1949-07-31 18:00:00 TS 9.00000 132.500 main 665 631 __O___________ -1 9.00000 132.500 0 1005 11 308
1949211N07139 1949 48 WP MM NOT_NAMED 1949-07-31 21:00:00 TS 9.32741 132.100 main 631 601 __P___________ -1 9.32741 132.100 0 1004 11 312
1949211N07139 1949 48 WP MM NOT_NAMED 1949-08-01 00:00:00 TS 9.70000 131.700 main 601 565 __O___________ -1 9.70000 131.700 1 23 1004 12 314
1949211N07139 1949 48 WP MM NOT_NAMED 1949-08-01 03:00:00 TS 10.1500 131.243 main 559 528 __P___________ -1 10.1500 131.243 1 23 1004 13 315
1949211N07139 1949 48 WP MM NOT_NAMED 1949-08-01 06:00:00 TS 10.6000 130.800 main 528 508 __O___________ -1 10.6000 130.800 1 23 1004 11 316
1949211N07139 1949 48 WP MM NOT_NAMED 1949-08-01 09:00:00 TS 10.9648 130.450 main 502 470 __P___________ -1 10.9648 130.450 1 23 1004 10 316
1949211N07139 1949 48 WP MM NOT_NAMED 1949-08-01 12:00:00 TS 11.3000 130.100 main 470 430 __O___________ -1 11.3000 130.100 1 23 1004 10 312
1949211N07139 1949 48 WP MM NOT_NAMED 1949-08-01 15:00:00 TS 11.6650 129.665 main 432 387 __P___________ -1 11.6650 129.665 1 23 1004 11 308
1949211N07139 1949 48 WP MM NOT_NAMED 1949-08-01 18:00:00 TS 12.0000 129.200 main 387 353 __O___________ -1 12.0000 129.200 1 23 1004 11 304
1949211N07139 1949 48 WP MM NOT_NAMED 1949-08-01 21:00:00 TS 12.2800 128.742 main 347 306 __P___________ -1 12.2800 128.742 1 23 1004 10 300
1949211N07139 1949 48 WP MM NOT_NAMED 1949-08-02 00:00:00 TS 12.5000 128.300 main 306 264 __O___________ -1 12.5000 128.300 1 23 1004 9 295
1949211N07139 1949 48 WP MM NOT_NAMED 1949-08-02 03:00:00 TS 12.6649 127.885 main 266 227 __P___________ -1 12.6649 127.885 1 23 1004 8 291
1949211N07139 1949 48 WP MM NOT_NAMED 1949-08-02 06:00:00 TS 12.8000 127.500 main 227 200 __O___________ -1 12.8000 127.500 1 23 1004 8 292
1949211N07139 1949 48 WP MM NOT_NAMED 1949-08-02 09:00:00 TS 12.9574 127.142 main 195 173 __P___________ -1 12.9574 127.142 1 23 1004 7 294
1949211N07139 1949 48 WP MM NOT_NAMED 1949-08-02 12:00:00 TS 13.1000 126.800 main 173 155 __O___________ -1 13.1000 126.800 1 23 1004 7 290
1949211N07139 1949 48 WP MM NOT_NAMED 1949-08-02 15:00:00 TS 13.2000 126.450 main 148 132 __P___________ -1 13.2000 126.450 1 1005 7 286
1949211N07139 1949 48 WP MM NOT_NAMED 1949-08-02 18:00:00 TS 13.3000 126.100 main 132 119 __O___________ -1 13.3000 126.100 0 1007 7 290
1949211N07139 1949 48 WP MM NOT_NAMED 1949-08-02 21:00:00 TS 13.4500 125.743 main 114 108 __P___________ -1 13.4500 125.743 0 1007 7 294
1949211N07139 1949 48 WP MM NOT_NAMED 1949-08-03 00:00:00 TS 13.6000 125.400 main 108 75 __O___________ -1 13.6000 125.400 0 1007 7 291
1949211N07139 1949 48 WP MM NOT_NAMED 1949-08-03 03:00:00 TS 13.6924 125.107 main 75 43 __P___________ -1 13.6924 125.107 0 1007 6 289
1949211N07139 1949 48 WP MM NOT_NAMED 1949-08-03 06:00:00 TS 13.8000 124.800 main 43 10 __O___________ -1 13.8000 124.800 0 1007 7 295
1949211N07139 1949 48 WP MM NOT_NAMED 1949-08-03 09:00:00 TS 14.0000 124.415 main 10 0 __P___________ -1 14.0000 124.415 0 1007 9 297
1949211N07139 1949 48 WP MM NOT_NAMED 1949-08-03 12:00:00 TS 14.2000 124.000 main 24 24 __O___________ -1 14.2000 124.000 0 1008 9 292
1949211N07139 1949 48 WP MM NOT_NAMED 1949-08-03 15:00:00 TS 14.3149 123.600 main 44 35 __P___________ -1 14.3149 123.600 0 1008 8 284
1949211N07139 1949 48 WP MM NOT_NAMED 1949-08-03 18:00:00 TS 14.4000 123.200 main 39 24 __O___________ -1 14.4000 123.200 0 1008 8 284
1949211N07139 1949 48 WP MM NOT_NAMED 1949-08-03 21:00:00 TS 14.5073 122.822 main 33 33 __P___________ -1 14.5073 122.822 0 1008 8 284
1949211N07139 1949 48 WP MM NOT_NAMED 1949-08-04 00:00:00 TS 14.6000 122.400 main 44 21 __O___________ -1 14.6000 122.400 0 1008 9 280
1949211N07139 1949 48 WP MM NOT_NAMED 1949-08-04 03:00:00 TS 14.6604 121.880 main 21 0 __P___________ -1 14.6604 121.880 0 1008 11 275
1949211N07139 1949 48 WP MM NOT_NAMED 1949-08-04 06:00:00 TS 14.7000 121.300 main 0 __O___________ -1 14.7000 121.300 0 1008 11 274

Digital Typhoon Data and Search

About IBTrACS Database

This database is a web-friendly format of International Best Track Archive for Climate Stewardship (IBTrACS), a global best track data archive curated by NOAA dating back to 1842.

Updated: 2021-12-01